createdAt,value
2018-12-20T00:00:42.256Z,12.35
2018-12-20T00:03:14.216Z,13.88
2018-12-20T00:05:44.803Z,13.25
2018-12-20T00:08:16.736Z,14.13
2018-12-20T00:10:47.165Z,12.45
2018-12-20T00:13:17.515Z,14.50
2018-12-20T00:15:48.050Z,15.03
2018-12-20T00:18:18.455Z,14.10
2018-12-20T00:20:48.645Z,11.18
2018-12-20T00:23:19.109Z,14.83
2018-12-20T00:25:49.778Z,13.70
2018-12-20T00:28:20.267Z,16.10
2018-12-20T00:30:50.569Z,13.55
2018-12-20T00:33:20.812Z,14.83
2018-12-20T00:35:51.053Z,13.53
2018-12-20T00:38:21.415Z,13.38
2018-12-20T00:40:51.833Z,13.75
2018-12-20T00:43:22.093Z,14.55
2018-12-20T00:45:53.269Z,13.35
2018-12-20T00:48:23.617Z,14.83
2018-12-20T00:50:54.933Z,13.98
2018-12-20T00:53:25.089Z,13.85
2018-12-20T00:55:55.484Z,13.98
2018-12-20T00:58:26.004Z,13.38
2018-12-20T01:00:56.471Z,14.80
2018-12-20T01:03:28.551Z,13.60
2018-12-20T01:05:59.139Z,14.73
2018-12-20T01:08:29.465Z,13.62
2018-12-20T01:10:59.870Z,13.38
2018-12-20T01:13:30.261Z,13.38
2018-12-20T01:16:01.537Z,13.78
2018-12-20T01:18:33.811Z,13.75
2018-12-20T01:21:04.185Z,13.10
2018-12-20T01:23:34.456Z,14.70
2018-12-20T01:26:05.144Z,14.93
2018-12-20T01:28:35.306Z,13.43
2018-12-20T01:31:05.503Z,14.70
2018-12-20T01:33:36.252Z,14.83
2018-12-20T01:36:06.365Z,16.62
2018-12-20T01:38:36.768Z,16.80
2018-12-20T01:41:07.378Z,15.25
2018-12-20T01:43:37.451Z,14.58
2018-12-20T01:46:08.151Z,14.35
2018-12-20T01:48:38.759Z,13.85
2018-12-20T01:51:08.900Z,14.07
2018-12-20T01:53:39.151Z,14.65
2018-12-20T01:56:09.533Z,14.33
2018-12-20T01:58:39.936Z,15.60
2018-12-20T02:01:11.042Z,14.73
2018-12-20T02:03:41.124Z,15.30
2018-12-20T02:06:11.494Z,15.03
2018-12-20T02:08:41.788Z,15.85
2018-12-20T02:11:12.052Z,13.55
2018-12-20T02:13:42.724Z,15.35
2018-12-20T02:16:12.992Z,15.65
2018-12-20T02:18:44.493Z,15.98
2018-12-20T02:21:15.486Z,15.23
2018-12-20T02:23:47.484Z,15.45
2018-12-20T02:26:18.553Z,14.95
2018-12-20T02:28:49.006Z,14.47
2018-12-20T02:31:19.546Z,16.52
2018-12-20T02:33:49.756Z,16.52
2018-12-20T02:36:20.137Z,15.63
2018-12-20T02:38:50.671Z,14.40
2018-12-20T02:41:20.960Z,15.03
2018-12-20T02:43:52.121Z,15.43
2018-12-20T02:46:22.286Z,17.02
2018-12-20T02:55:42.735Z,15.13
2018-12-20T02:58:14.025Z,16.50
2018-12-20T03:00:44.621Z,14.98
2018-12-20T03:03:14.804Z,14.60
2018-12-20T03:05:44.961Z,14.23
2018-12-20T03:08:15.365Z,14.63
2018-12-20T03:10:45.701Z,13.50
2018-12-20T03:13:16.158Z,14.15
2018-12-20T03:15:46.603Z,15.95
2018-12-20T03:18:17.537Z,14.25
2018-12-20T03:20:48.088Z,15.58
2018-12-20T03:23:18.379Z,14.55
2018-12-20T03:25:49.128Z,15.00
2018-12-20T03:28:20.414Z,14.70
2018-12-20T03:30:51.032Z,15.68
2018-12-20T03:33:21.292Z,14.90
2018-12-20T03:35:52.327Z,16.10
2018-12-20T03:38:23.655Z,15.23
2018-12-20T03:40:54.435Z,14.55
2018-12-20T03:43:25.590Z,16.50
2018-12-20T03:45:56.337Z,15.65
2018-12-20T03:48:26.460Z,15.93
2018-12-20T03:50:56.854Z,16.20
2018-12-20T03:53:28.055Z,17.25
2018-12-20T03:55:58.614Z,15.05
2018-12-20T03:58:29.617Z,16.87
2018-12-20T04:01:01.490Z,16.62
2018-12-20T04:03:32.669Z,18.00
2018-12-20T04:06:03.247Z,14.78
2018-12-20T04:08:33.586Z,15.98
2018-12-20T04:11:04.154Z,16.85
2018-12-20T04:13:34.815Z,16.25
2018-12-20T04:16:05.588Z,14.23
2018-12-20T04:18:36.717Z,15.58
2018-12-20T04:21:06.876Z,15.65
2018-12-20T04:23:37.321Z,16.25
2018-12-20T04:26:07.829Z,14.38
2018-12-20T04:28:38.056Z,14.68
2018-12-20T04:31:08.459Z,13.95
2018-12-20T04:33:38.839Z,13.08
2018-12-20T04:36:09.433Z,15.55
2018-12-20T04:38:42.466Z,14.10
2018-12-20T04:41:13.049Z,16.25
2018-12-20T04:43:43.591Z,14.05
2018-12-20T04:46:15.381Z,14.15
2018-12-20T04:48:46.062Z,14.43
2018-12-20T04:51:16.921Z,15.45
2018-12-20T04:53:47.526Z,14.07
2018-12-20T04:56:18.223Z,14.47
2018-12-20T04:58:49.547Z,14.63
2018-12-20T05:01:19.895Z,15.15
2018-12-20T05:03:50.400Z,15.48
2018-12-20T05:06:21.405Z,14.70
2018-12-20T05:08:51.431Z,13.90
2018-12-20T05:11:21.803Z,14.60
2018-12-20T05:13:51.916Z,15.48
2018-12-20T05:16:22.941Z,15.10
2018-12-20T05:18:54.213Z,13.30
2018-12-20T05:21:24.287Z,15.48
2018-12-20T05:23:54.691Z,18.00
2018-12-20T05:26:25.001Z,15.93
2018-12-20T05:28:55.516Z,14.58
2018-12-20T05:31:25.840Z,13.30
2018-12-20T05:33:56.273Z,14.03
2018-12-20T05:36:26.744Z,14.23
2018-12-20T05:38:56.826Z,16.23
2018-12-20T05:41:27.567Z,14.75
2018-12-20T05:43:58.191Z,14.00
2018-12-20T05:46:29.460Z,13.38
2018-12-20T05:49:01.362Z,14.68
2018-12-20T05:51:31.796Z,13.68
2018-12-20T05:54:02.145Z,13.88
2018-12-20T05:56:35.635Z,13.50
2018-12-20T05:59:06.829Z,13.60
2018-12-20T06:01:37.546Z,16.95
2018-12-20T06:04:07.790Z,16.07
2018-12-20T06:06:39.382Z,15.43
2018-12-20T06:09:10.260Z,15.90
2018-12-20T06:11:40.905Z,14.18
2018-12-20T06:14:11.688Z,14.18
2018-12-20T06:16:42.555Z,15.53
2018-12-20T06:19:13.008Z,14.35
2018-12-20T06:21:44.102Z,14.50
2018-12-20T06:24:14.573Z,14.15
2018-12-20T06:26:44.859Z,15.30
2018-12-20T06:29:14.904Z,15.32
2018-12-20T06:31:46.079Z,15.98
2018-12-20T06:34:16.374Z,15.00
2018-12-20T06:36:47.072Z,16.62
2018-12-20T06:39:17.569Z,19.15
2018-12-20T06:41:47.610Z,19.87
2018-12-20T06:44:17.918Z,13.30
2018-12-20T06:46:51.531Z,15.58
2018-12-20T06:49:22.960Z,16.40
2018-12-20T06:51:55.883Z,13.95
2018-12-20T06:54:27.086Z,13.70
2018-12-20T06:56:57.578Z,16.40
2018-12-20T06:59:28.968Z,14.43
2018-12-20T07:01:59.092Z,14.40
2018-12-20T07:04:29.412Z,14.80
2018-12-20T07:06:59.917Z,13.53
2018-12-20T07:09:30.298Z,15.32
2018-12-20T07:12:01.661Z,15.00
2018-12-20T07:14:32.456Z,13.60
2018-12-20T07:17:02.582Z,14.90
2018-12-20T07:19:33.029Z,13.32
2018-12-20T07:22:03.531Z,13.50
2018-12-20T07:24:34.230Z,16.55
2018-12-20T07:27:04.827Z,15.95
2018-12-20T07:29:35.006Z,17.55
2018-12-20T07:32:05.316Z,13.20
2018-12-20T07:34:35.455Z,13.95
2018-12-20T07:37:05.906Z,13.62
2018-12-20T07:39:38.244Z,15.98
2018-12-20T07:42:08.565Z,15.50
2018-12-20T07:44:38.792Z,13.88
2018-12-20T07:47:09.080Z,13.88
2018-12-20T07:49:40.289Z,13.50
2018-12-20T07:52:10.715Z,13.90
2018-12-20T07:54:40.824Z,11.93
2018-12-20T07:57:10.934Z,13.15
2018-12-20T07:59:41.114Z,12.18
2018-12-20T08:02:12.056Z,15.08
2018-12-20T08:04:42.234Z,14.80
2018-12-20T08:07:12.815Z,13.40
2018-12-20T08:09:43.099Z,11.38
2018-12-20T08:12:13.190Z,15.40
2018-12-20T08:14:43.340Z,12.23
2018-12-20T08:17:13.529Z,14.35
2018-12-20T08:19:44.219Z,16.42
2018-12-20T08:22:14.420Z,15.43
2018-12-20T08:24:44.548Z,14.65
2018-12-20T08:27:14.737Z,14.60
2018-12-20T08:29:47.284Z,16.02
2018-12-20T08:32:18.770Z,14.85
2018-12-20T08:34:48.747Z,15.25
2018-12-20T08:37:18.912Z,15.85
2018-12-20T08:39:50.036Z,16.35
2018-12-20T08:42:20.998Z,15.53
2018-12-20T08:44:51.124Z,16.10
2018-12-20T08:47:21.484Z,13.88
2018-12-20T08:49:51.564Z,18.20
2018-12-20T08:52:21.634Z,19.35
2018-12-20T08:54:51.685Z,14.30
2018-12-20T08:57:21.964Z,17.48
2018-12-20T08:59:52.313Z,14.63
2018-12-20T09:02:22.562Z,15.70
2018-12-20T09:04:52.885Z,14.03
2018-12-20T09:07:24.126Z,16.00
2018-12-20T09:09:54.478Z,14.00
2018-12-20T09:12:24.710Z,16.05
2018-12-20T09:14:54.814Z,15.90
2018-12-20T09:17:25.091Z,13.45
2018-12-20T09:19:55.644Z,17.00
2018-12-20T09:22:25.432Z,14.68
2018-12-20T09:24:57.175Z,15.93
2018-12-20T09:27:27.382Z,16.07
2018-12-20T09:29:57.575Z,14.45
2018-12-20T09:32:27.914Z,14.75
2018-12-20T09:34:58.364Z,15.35
2018-12-20T09:37:28.658Z,14.98
2018-12-20T09:39:59.098Z,13.88
2018-12-20T09:42:29.331Z,14.35
2018-12-20T09:44:59.612Z,15.88
2018-12-20T09:47:34.549Z,13.53
2018-12-20T09:50:04.919Z,13.48
2018-12-20T09:52:35.476Z,14.73
2018-12-20T09:55:06.166Z,14.35
2018-12-20T09:57:36.355Z,15.30
2018-12-20T10:00:07.275Z,15.03
2018-12-20T10:02:37.958Z,16.17
2018-12-20T10:05:08.020Z,14.23
2018-12-20T10:07:38.081Z,14.25
2018-12-20T10:10:09.188Z,15.08
2018-12-20T10:12:39.290Z,13.88
2018-12-20T10:15:10.080Z,14.23
2018-12-20T10:17:40.603Z,13.40
2018-12-20T10:20:13.513Z,14.58
2018-12-20T10:22:44.672Z,13.65
2018-12-20T10:25:14.945Z,15.05
2018-12-20T10:27:45.158Z,13.65
2018-12-20T10:30:15.307Z,13.38
2018-12-20T10:32:46.110Z,14.83
2018-12-20T10:35:16.131Z,14.40
2018-12-20T10:37:46.228Z,15.53
2018-12-20T10:40:16.536Z,15.05
2018-12-20T10:42:46.925Z,14.03
2018-12-20T10:45:16.945Z,20.40
2018-12-20T10:47:47.088Z,15.65
2018-12-20T10:50:17.118Z,14.23
2018-12-20T10:52:48.632Z,13.60
2018-12-20T10:55:18.682Z,15.23
2018-12-20T10:57:50.171Z,15.93
2018-12-20T11:00:20.189Z,17.70
2018-12-20T11:02:55.287Z,18.00
2018-12-20T11:05:31.031Z,16.23
2018-12-20T11:08:05.261Z,18.90
2018-12-20T11:10:36.060Z,16.77
2018-12-20T11:13:12.159Z,18.02
2018-12-20T11:15:43.315Z,16.80
2018-12-20T11:18:13.473Z,19.02
2018-12-20T11:20:43.643Z,15.90
2018-12-20T11:23:13.858Z,34.78
2018-12-20T11:25:43.887Z,21.30
2018-12-20T11:28:13.905Z,19.10
2018-12-20T11:30:44.619Z,24.02
2018-12-20T11:33:16.431Z,20.32
2018-12-20T11:35:47.033Z,21.12
2018-12-20T11:38:17.215Z,15.65
2018-12-20T11:40:47.312Z,16.85
2018-12-20T11:43:17.381Z,16.45
2018-12-20T11:45:47.480Z,29.82
2018-12-20T11:48:18.160Z,18.40
2018-12-20T11:50:48.337Z,20.00
2018-12-20T11:53:18.473Z,21.85
2018-12-20T11:55:48.554Z,18.52
2018-12-20T11:58:18.593Z,14.93
2018-12-20T12:00:48.722Z,14.10
2018-12-20T12:03:18.817Z,13.40
2018-12-20T12:05:49.172Z,15.70
2018-12-20T12:08:20.171Z,16.52
2018-12-20T12:10:50.211Z,16.67
2018-12-20T12:13:20.304Z,16.50
2018-12-20T12:15:51.400Z,14.90
2018-12-20T12:18:21.879Z,17.00
2018-12-20T12:20:51.971Z,17.02
2018-12-20T12:23:22.534Z,16.25
2018-12-20T12:25:52.645Z,16.32
2018-12-20T12:28:22.581Z,15.63
2018-12-20T12:30:52.893Z,16.00
2018-12-20T12:33:23.154Z,15.80
2018-12-20T12:35:53.393Z,15.25
2018-12-20T12:38:23.886Z,17.23
2018-12-20T12:40:54.239Z,17.50
2018-12-20T12:43:24.624Z,17.82
2018-12-20T12:45:55.951Z,16.57
2018-12-20T12:48:26.246Z,17.65
2018-12-20T12:50:56.635Z,18.10
2018-12-20T12:53:29.969Z,20.65
2018-12-20T12:56:00.911Z,21.85
2018-12-20T12:58:31.276Z,21.15
2018-12-20T13:01:02.504Z,18.30
2018-12-20T13:03:32.787Z,18.12
2018-12-20T13:06:03.540Z,17.62
2018-12-20T13:08:34.445Z,17.90
2018-12-20T13:11:08.133Z,36.25
2018-12-20T13:13:38.809Z,21.40
2018-12-20T13:16:09.323Z,18.60
2018-12-20T13:18:40.668Z,28.47
2018-12-20T13:21:11.071Z,29.15
2018-12-20T13:23:41.432Z,29.45
2018-12-20T13:26:12.119Z,25.95
2018-12-20T13:28:43.469Z,23.50
2018-12-20T13:31:14.445Z,24.32
2018-12-20T13:33:44.863Z,29.05
2018-12-20T13:36:15.856Z,19.23
2018-12-20T13:38:46.481Z,20.20
2018-12-20T13:41:17.159Z,24.52
2018-12-20T13:43:48.562Z,28.87
2018-12-20T13:46:18.742Z,20.57
2018-12-20T13:48:48.926Z,20.02
2018-12-20T13:51:19.002Z,18.50
2018-12-20T13:53:49.396Z,28.77
2018-12-20T13:56:19.393Z,29.30
2018-12-20T13:58:50.552Z,26.75
2018-12-20T14:01:21.533Z,27.70
2018-12-20T14:03:51.728Z,23.47
2018-12-20T14:06:23.036Z,24.63
2018-12-20T14:08:53.650Z,22.20
2018-12-20T14:11:23.929Z,27.40
2018-12-20T14:13:54.629Z,24.47
2018-12-20T14:16:24.850Z,26.70
2018-12-20T14:18:55.996Z,32.23
2018-12-20T14:21:26.405Z,24.20
2018-12-20T14:23:57.811Z,25.92
2018-12-20T14:26:28.428Z,25.25
2018-12-20T14:28:58.616Z,24.00
2018-12-20T14:31:28.804Z,24.98
2018-12-20T14:33:59.818Z,23.18
2018-12-20T14:36:30.123Z,22.32
2018-12-20T14:39:01.343Z,19.62
2018-12-20T14:41:32.444Z,24.15
2018-12-20T14:44:02.855Z,21.77
2018-12-20T14:46:33.479Z,21.62
2018-12-20T14:49:03.475Z,22.15
2018-12-20T14:51:33.993Z,24.52
2018-12-20T14:54:04.218Z,22.85
2018-12-20T14:56:34.485Z,27.27
2018-12-20T14:59:09.060Z,30.08
2018-12-20T15:01:39.118Z,26.70
2018-12-20T15:04:09.048Z,29.45
2018-12-20T15:06:39.500Z,28.90
2018-12-20T15:09:11.428Z,31.95
2018-12-20T15:11:41.685Z,32.53
2018-12-20T15:14:12.344Z,27.45
2018-12-20T15:16:43.496Z,34.18
2018-12-20T15:19:13.908Z,31.33
2018-12-20T15:21:46.231Z,38.05
2018-12-20T15:24:17.099Z,30.27
2018-12-20T15:26:47.380Z,41.10
2018-12-20T15:29:18.011Z,33.80
2018-12-20T15:31:53.372Z,37.20
2018-12-20T15:34:21.305Z,21.45
2018-12-20T15:36:51.749Z,22.45
2018-12-20T15:39:22.081Z,21.17
2018-12-20T15:41:52.321Z,24.67
2018-12-20T15:44:23.000Z,25.27
2018-12-20T15:46:54.189Z,27.80
2018-12-20T15:49:24.372Z,21.93
2018-12-20T15:51:54.824Z,23.20
2018-12-20T15:54:25.850Z,27.82
2018-12-20T15:56:56.105Z,32.55
2018-12-20T15:59:26.314Z,23.92
2018-12-20T16:01:56.840Z,27.22
2018-12-20T16:04:29.633Z,28.45
2018-12-20T16:07:00.197Z,26.23
2018-12-20T16:09:31.234Z,29.55
2018-12-20T16:12:01.440Z,28.80
2018-12-20T16:14:31.508Z,29.27
2018-12-20T16:17:01.478Z,33.75
2018-12-20T16:19:31.803Z,29.70
2018-12-20T16:22:01.979Z,30.27
2018-12-20T16:24:32.131Z,29.48
2018-12-20T16:27:02.946Z,29.57
2018-12-20T16:29:34.268Z,33.85
2018-12-20T16:32:04.496Z,33.30
2018-12-20T16:34:35.304Z,31.62
2018-12-20T16:37:05.771Z,33.90
2018-12-20T16:39:35.865Z,31.42
2018-12-20T16:42:07.143Z,43.38
2018-12-20T16:44:37.385Z,40.33
2018-12-20T16:47:09.332Z,46.45
2018-12-20T16:49:39.776Z,55.00
2018-12-20T16:52:10.163Z,49.63
2018-12-20T16:54:40.493Z,38.23
2018-12-20T16:57:10.736Z,50.60
2018-12-20T16:59:42.370Z,48.92
2018-12-20T17:02:12.480Z,43.42
2018-12-20T17:04:44.081Z,43.80
2018-12-20T17:07:14.679Z,42.25
2018-12-20T17:09:45.667Z,41.92
2018-12-20T17:12:16.871Z,43.17
2018-12-20T17:14:47.216Z,43.28
2018-12-20T17:17:18.216Z,39.25
2018-12-20T17:19:48.893Z,38.58
2018-12-20T17:22:19.114Z,38.10
2018-12-20T17:24:49.463Z,41.13
2018-12-20T17:27:19.639Z,41.75
2018-12-20T17:29:49.873Z,41.30
2018-12-20T17:32:20.127Z,41.73
2018-12-20T17:34:50.380Z,40.95
2018-12-20T17:37:20.721Z,39.50
2018-12-20T17:39:50.948Z,41.13
2018-12-20T17:42:22.329Z,39.80
2018-12-20T17:44:52.512Z,36.93
2018-12-20T17:47:23.633Z,37.30
2018-12-20T17:49:54.852Z,41.25
2018-12-20T17:52:25.086Z,40.28
2018-12-20T17:54:55.803Z,44.50
2018-12-20T17:57:26.074Z,44.67
2018-12-20T17:59:56.464Z,41.05
2018-12-20T18:02:26.956Z,35.13
2018-12-20T18:05:06.691Z,48.80
2018-12-20T18:07:31.406Z,56.02
2018-12-20T18:10:02.542Z,57.27
2018-12-20T18:12:33.934Z,50.83
2018-12-20T18:15:04.724Z,49.85
2018-12-20T18:17:37.191Z,47.25
2018-12-20T18:20:10.773Z,49.48
2018-12-20T18:23:44.562Z,49.73
2018-12-20T18:26:19.839Z,49.03
2018-12-20T18:28:54.174Z,44.88
2018-12-20T18:31:31.990Z,43.70
2018-12-20T18:34:10.885Z,45.00
2018-12-20T18:36:41.781Z,39.10
2018-12-20T18:39:12.631Z,40.15
2018-12-20T18:41:45.175Z,36.00
2018-12-20T18:44:16.260Z,37.48
2018-12-20T18:46:50.037Z,50.90
2018-12-20T18:49:21.249Z,45.58
2018-12-20T18:51:51.803Z,45.58
2018-12-20T18:54:22.083Z,46.13
2018-12-20T18:56:53.419Z,44.77
2018-12-20T18:59:24.211Z,40.75
2018-12-20T19:01:54.599Z,41.15
2018-12-20T19:04:25.897Z,37.55
2018-12-20T19:06:56.655Z,41.02
2018-12-20T19:09:26.757Z,40.15
2018-12-20T19:11:58.075Z,32.85
2018-12-20T19:14:29.280Z,28.98
2018-12-20T19:17:00.872Z,32.42
2018-12-20T19:19:31.205Z,35.05
2018-12-20T19:22:01.758Z,33.45
2018-12-20T19:24:33.098Z,32.60
2018-12-20T19:27:05.067Z,37.15
2018-12-20T19:29:35.695Z,30.27
2018-12-20T19:32:06.466Z,31.50
2018-12-20T19:34:37.762Z,30.27
2018-12-20T19:37:07.827Z,32.93
2018-12-20T19:39:39.590Z,34.80
2018-12-20T19:42:12.759Z,31.87
2018-12-20T19:44:42.676Z,40.35
2018-12-20T19:47:12.676Z,40.30
2018-12-20T19:49:43.456Z,42.95
2018-12-20T19:52:13.662Z,34.78
2018-12-20T19:54:47.945Z,31.57
2018-12-20T19:57:16.023Z,30.30
2018-12-20T19:59:46.230Z,27.20
2018-12-20T20:02:16.833Z,26.30
2018-12-20T20:04:47.059Z,23.47
2018-12-20T20:07:17.355Z,22.73
2018-12-20T20:09:47.494Z,21.95
2018-12-20T20:12:18.044Z,22.65
2018-12-20T20:14:48.204Z,22.87
2018-12-20T20:17:18.498Z,20.70
2018-12-20T20:19:49.496Z,23.18
2018-12-20T20:22:19.663Z,20.68
2018-12-20T20:24:49.941Z,20.40
2018-12-20T20:27:20.875Z,21.42
2018-12-20T20:29:51.143Z,26.75
2018-12-20T20:32:21.509Z,32.90
2018-12-20T20:34:52.926Z,22.70
2018-12-20T20:37:23.391Z,22.93
2018-12-20T20:39:53.892Z,21.50
2018-12-20T20:42:25.037Z,24.10
2018-12-20T20:44:55.383Z,23.90
2018-12-20T20:47:25.922Z,23.57
2018-12-20T20:49:56.246Z,24.35
2018-12-20T20:52:27.559Z,29.12
2018-12-20T20:55:00.418Z,25.08
2018-12-20T20:57:31.298Z,23.38
2018-12-20T21:00:01.640Z,21.68
2018-12-20T21:02:33.007Z,22.00
2018-12-20T21:05:03.910Z,25.02
2018-12-20T21:07:35.552Z,26.35
2018-12-20T21:10:06.398Z,24.67
2018-12-20T21:12:37.036Z,25.57
2018-12-20T21:15:08.078Z,25.32
2018-12-20T21:17:38.236Z,23.15
2018-12-20T21:20:12.114Z,21.85
2018-12-20T21:22:42.974Z,22.82
2018-12-20T21:25:13.277Z,23.50
2018-12-20T21:27:43.805Z,20.70
2018-12-20T21:30:14.253Z,20.97
2018-12-20T21:32:44.488Z,20.20
2018-12-20T21:35:15.461Z,20.27
2018-12-20T21:37:45.883Z,18.42
2018-12-20T21:40:16.275Z,18.65
2018-12-20T21:42:47.028Z,18.35
2018-12-20T21:45:17.257Z,19.27
2018-12-20T21:47:47.661Z,18.32
2018-12-20T21:50:17.820Z,18.80
2018-12-20T21:52:47.945Z,18.07
2018-12-20T21:55:18.529Z,16.17
2018-12-20T21:57:48.990Z,17.57
2018-12-20T22:00:19.980Z,16.23
2018-12-20T22:02:50.216Z,17.37
2018-12-20T22:05:20.794Z,15.28
2018-12-20T22:07:51.503Z,14.80
2018-12-20T22:10:21.725Z,16.30
2018-12-20T22:12:51.745Z,16.25
2018-12-20T22:15:23.043Z,15.40
2018-12-20T22:17:53.352Z,17.50
2018-12-20T22:20:23.560Z,16.55
2018-12-20T22:22:54.039Z,16.12
2018-12-20T22:25:25.556Z,14.98
2018-12-20T22:27:56.149Z,17.77
2018-12-20T22:30:26.761Z,17.45
2018-12-20T22:32:57.925Z,15.63
2018-12-20T22:35:28.378Z,15.72
2018-12-20T22:37:58.737Z,13.58
2018-12-20T22:40:28.868Z,14.85
2018-12-20T22:42:58.950Z,16.35
2018-12-20T22:45:29.487Z,13.80
2018-12-20T22:48:00.117Z,15.20
2018-12-20T22:50:30.168Z,15.20
2018-12-20T22:53:00.707Z,14.07
2018-12-20T22:55:31.855Z,14.93
2018-12-20T22:58:01.959Z,15.80
2018-12-20T23:00:31.993Z,16.10
2018-12-20T23:03:02.725Z,15.80
2018-12-20T23:05:33.245Z,15.25
2018-12-20T23:08:03.432Z,16.32
2018-12-20T23:10:34.225Z,15.88
2018-12-20T23:13:04.455Z,16.75
2018-12-20T23:15:34.590Z,16.75
2018-12-20T23:18:04.691Z,15.58
2018-12-20T23:20:35.021Z,17.62
2018-12-20T23:23:05.868Z,15.98
2018-12-20T23:25:36.186Z,15.38
2018-12-20T23:28:07.234Z,16.55
2018-12-20T23:30:37.430Z,17.50
2018-12-20T23:33:08.589Z,17.90
2018-12-20T23:35:38.944Z,17.87
2018-12-20T23:38:09.640Z,17.77
2018-12-20T23:40:39.650Z,16.70
2018-12-20T23:43:10.780Z,17.70
2018-12-20T23:45:40.909Z,17.70
2018-12-20T23:48:11.009Z,17.15
2018-12-20T23:50:41.691Z,16.17
2018-12-20T23:53:12.075Z,17.02
2018-12-20T23:55:43.621Z,18.35
2018-12-20T23:58:13.943Z,17.23
